Time;durP1;ratioP1;P1;durP2;ratioP2;P2;SDS_P1;SDS_P2;PMS_P1;PMS_P2;Temp;Humidity;BMP_temperature;BMP_pressure;BME280_temperature;BME280_humidity;BME280_pressure;Samples;Min_cycle;Max_cycle;Signal;HPM_P1;HPM_P2
2023/03/05 00:01:29;;;;;;;0.90;0.70;;;18.40;35.90;;;;;;5001026;28;20234;-67
2023/03/05 00:03:55;;;;;;;1.67;0.80;;;18.40;35.90;;;;;;4988682;28;20271;-67
2023/03/05 00:06:24;;;;;;;1.10;0.80;;;18.40;35.90;;;;;;5004725;28;20434;-67
2023/03/05 00:08:52;;;;;;;1.10;0.80;;;18.40;35.90;;;;;;4987800;28;20432;-67
2023/03/05 00:11:18;;;;;;;1.10;0.80;;;18.40;35.90;;;;;;4998606;28;20487;-67
2023/03/05 00:13:44;;;;;;;1.00;0.70;;;18.40;35.90;;;;;;5000645;28;20518;-67
2023/03/05 00:16:13;;;;;;;1.27;1.17;;;18.40;35.90;;;;;;4997261;28;20520;-67
2023/03/05 00:18:39;;;;;;;4.10;1.30;;;18.40;35.90;;;;;;5002574;28;20281;-67
2023/03/05 00:21:24;;;;;;;1.23;0.90;;;18.40;35.90;;;;;;5003571;28;20427;-67
2023/03/05 00:23:50;;;;;;;4.90;1.10;;;18.40;35.90;;;;;;4995372;28;20237;-67
2023/03/05 00:26:18;;;;;;;1.40;0.90;;;18.40;35.90;;;;;;4998782;28;20447;-67
2023/03/05 00:28:43;;;;;;;1.37;0.90;;;18.40;35.90;;;;;;5000171;28;20575;-67
2023/03/05 00:31:09;;;;;;;1.00;0.90;;;18.40;36.00;;;;;;5000091;28;20927;-67
2023/03/05 00:33:34;;;;;;;0.80;0.77;;;18.40;35.90;;;;;;4991251;28;20306;-67
2023/03/05 00:36:05;;;;;;;1.30;0.70;;;18.40;35.90;;;;;;5019433;28;20730;-67
2023/03/05 00:38:31;;;;;;;1.10;1.00;;;18.40;35.90;;;;;;4997428;28;20235;-67
2023/03/05 00:40:57;;;;;;;1.80;0.80;;;18.40;35.90;;;;;;4999418;28;20451;-67
2023/03/05 00:43:22;;;;;;;1.10;0.87;;;18.40;35.90;;;;;;4995774;28;20416;-66
2023/03/05 00:45:48;;;;;;;1.13;0.90;;;18.40;36.00;;;;;;4994636;28;20293;-67
2023/03/05 00:48:13;;;;;;;2.23;0.90;;;18.40;36.00;;;;;;4999392;28;20274;-67
2023/03/05 00:50:39;;;;;;;1.70;0.93;;;18.40;36.00;;;;;;4995397;28;20356;-67
2023/03/05 00:53:04;;;;;;;1.00;0.83;;;18.40;35.90;;;;;;4995777;28;20714;-67
2023/03/05 00:55:30;;;;;;;1.00;0.90;;;18.40;36.00;;;;;;4995881;28;20694;-67
2023/03/05 00:57:56;;;;;;;1.00;0.90;;;18.40;36.00;;;;;;4987151;28;20374;-68
2023/03/05 01:00:21;;;;;;;0.73;0.73;;;18.40;36.00;;;;;;4994165;28;20579;-67
2023/03/05 01:02:47;;;;;;;1.20;1.07;;;18.40;36.00;;;;;;4990109;28;20227;-67
2023/03/05 01:05:14;;;;;;;0.90;0.70;;;18.40;36.00;;;;;;4999730;28;20223;-67
2023/03/05 01:07:40;;;;;;;1.40;0.80;;;18.40;36.00;;;;;;4997945;28;20676;-67
2023/03/05 01:10:06;;;;;;;1.27;0.90;;;18.40;36.00;;;;;;4998783;28;20564;-67
2023/03/05 01:12:32;;;;;;;2.87;1.13;;;18.40;36.00;;;;;;5001039;28;20481;-67
2023/03/05 01:14:57;;;;;;;0.90;0.83;;;18.40;36.10;;;;;;4997116;28;20499;-66
2023/03/05 01:17:23;;;;;;;0.80;0.70;;;18.40;36.00;;;;;;4995826;28;20352;-67
2023/03/05 01:19:48;;;;;;;1.07;0.77;;;18.40;36.00;;;;;;4991160;28;20224;-67
2023/03/05 01:22:14;;;;;;;1.40;0.90;;;18.40;36.00;;;;;;4992989;28;20227;-67
2023/03/05 01:24:39;;;;;;;0.90;0.70;;;18.40;36.00;;;;;;4995598;28;20637;-67
2023/03/05 01:27:05;;;;;;;1.10;0.93;;;18.40;36.10;;;;;;4995395;28;20297;-67
2023/03/05 01:29:30;;;;;;;1.00;0.80;;;18.40;36.10;;;;;;4978778;28;20373;-67
2023/03/05 01:31:56;;;;;;;1.23;0.80;;;18.40;36.10;;;;;;4989893;28;20238;-67
2023/03/05 01:34:22;;;;;;;1.10;0.70;;;18.40;36.00;;;;;;4984342;28;20219;-67
2023/03/05 01:36:49;;;;;;;1.30;0.83;;;18.30;36.00;;;;;;4987087;28;20889;-68
2023/03/05 01:39:15;;;;;;;1.03;0.93;;;18.40;36.10;;;;;;4975299;28;20580;-67
2023/03/05 01:41:41;;;;;;;0.83;0.80;;;18.40;36.00;;;;;;4998682;28;20446;-68
2023/03/05 01:44:14;;;;;;;0.70;0.60;;;18.40;36.00;;;;;;4987828;28;20432;-67
2023/03/05 01:46:40;;;;;;;1.50;1.17;;;18.40;36.00;;;;;;4983823;28;20296;-67
2023/03/05 01:49:14;;;;;;;1.40;0.90;;;18.40;36.00;;;;;;4989545;28;20432;-67
2023/03/05 01:52:00;;;;;;;1.97;0.87;;;18.40;36.00;;;;;;5013576;28;20232;-67
2023/03/05 01:54:32;;;;;;;0.87;0.80;;;18.30;36.00;;;;;;4983726;28;20445;-67
2023/03/05 01:57:05;;;;;;;2.10;0.83;;;18.30;35.90;;;;;;4994921;28;20515;-67
2023/03/05 01:59:32;;;;;;;1.00;0.80;;;18.30;35.90;;;;;;4975976;28;20475;-67
2023/03/05 02:01:58;;;;;;;0.80;0.70;;;18.30;35.90;;;;;;4981871;28;20425;-68
2023/03/05 02:04:30;;;;;;;1.03;0.73;;;18.30;35.90;;;;;;4978298;28;20501;-67
2023/03/05 02:06:56;;;;;;;1.00;0.90;;;18.30;35.90;;;;;;4996916;28;20821;-66
2023/03/05 02:09:22;;;;;;;0.80;0.73;;;18.30;35.90;;;;;;4994041;28;20456;-67
2023/03/05 02:11:48;;;;;;;0.83;0.70;;;18.30;36.00;;;;;;4997082;28;20219;-67
2023/03/05 02:14:14;;;;;;;1.10;0.87;;;18.30;36.00;;;;;;4986772;28;21042;-67
2023/03/05 02:16:41;;;;;;;1.30;1.00;;;18.30;35.90;;;;;;4987052;28;20223;-67
2023/03/05 02:19:09;;;;;;;1.00;0.80;;;18.30;35.90;;;;;;4985030;28;20246;-67
2023/03/05 02:21:38;;;;;;;0.80;0.70;;;18.30;36.00;;;;;;4982051;28;20958;-67
2023/03/05 02:24:04;;;;;;;2.20;0.90;;;18.30;36.70;;;;;;4987579;28;20969;-67
2023/03/05 02:26:30;;;;;;;1.07;0.97;;;18.30;35.90;;;;;;4972872;28;20465;-67
2023/03/05 02:28:58;;;;;;;1.07;0.97;;;18.30;36.00;;;;;;4993208;28;20461;-67
2023/03/05 02:31:25;;;;;;;0.87;0.70;;;18.30;36.00;;;;;;4987677;28;20690;-66
2023/03/05 02:33:52;;;;;;;1.30;0.90;;;18.30;36.00;;;;;;4993705;28;20468;-67
2023/03/05 02:36:18;;;;;;;0.90;0.70;;;18.30;36.00;;;;;;4984553;28;20468;-67
2023/03/05 02:38:45;;;;;;;0.93;0.77;;;18.30;36.00;;;;;;4988410;28;20457;-67
2023/03/05 02:41:11;;;;;;;0.90;0.80;;;18.30;36.00;;;;;;4989039;28;20464;-67
2023/03/05 02:43:37;;;;;;;1.00;0.80;;;18.30;36.00;;;;;;4993710;28;20507;-68
2023/03/05 02:46:03;;;;;;;0.80;0.77;;;18.30;36.00;;;;;;4997393;28;21059;-66
2023/03/05 02:48:28;;;;;;;1.10;0.70;;;18.30;36.00;;;;;;4995031;28;20231;-67
2023/03/05 02:50:55;;;;;;;1.00;0.90;;;18.30;36.00;;;;;;5000009;28;20486;-66
2023/03/05 02:53:22;;;;;;;0.83;0.83;;;18.30;36.00;;;;;;4986471;28;20255;-67
2023/03/05 02:55:49;;;;;;;0.90;0.90;;;18.30;36.00;;;;;;4995395;28;20440;-68
2023/03/05 02:58:15;;;;;;;0.97;0.80;;;18.30;36.00;;;;;;4995886;28;21148;-68
2023/03/05 03:00:41;;;;;;;0.70;0.70;;;18.30;36.00;;;;;;4995173;28;20440;-68
2023/03/05 03:03:07;;;;;;;1.77;0.80;;;18.30;36.10;;;;;;4998192;28;20498;-67
2023/03/05 03:05:32;;;;;;;1.10;0.87;;;18.30;36.10;;;;;;4991896;28;20489;-68
2023/03/05 03:07:58;;;;;;;1.40;0.80;;;18.30;36.10;;;;;;4979777;28;20627;-68
2023/03/05 03:10:23;;;;;;;1.00;0.80;;;18.30;36.20;;;;;;4984864;28;20689;-68
2023/03/05 03:12:49;;;;;;;1.37;1.27;;;18.30;36.00;;;;;;4984280;28;20239;-67
2023/03/05 03:15:16;;;;;;;1.00;0.90;;;18.30;36.00;;;;;;4995210;28;20230;-67
2023/03/05 03:17:41;;;;;;;1.03;0.90;;;18.30;36.10;;;;;;4991814;28;20572;-68
2023/03/05 03:20:10;;;;;;;1.00;0.90;;;18.30;36.00;;;;;;4989048;28;20456;-68
2023/03/05 03:22:35;;;;;;;1.07;0.90;;;18.30;36.10;;;;;;4990938;28;20224;-68
2023/03/05 03:25:02;;;;;;;1.30;1.03;;;18.30;36.10;;;;;;4997563;28;20447;-68
2023/03/05 03:27:28;;;;;;;1.00;0.90;;;18.30;36.10;;;;;;4997764;28;20222;-68
2023/03/05 03:29:53;;;;;;;0.87;0.80;;;18.30;36.00;;;;;;4980422;28;21036;-67
2023/03/05 03:32:19;;;;;;;1.40;0.90;;;18.30;36.00;;;;;;4997846;28;20753;-67
2023/03/05 03:34:46;;;;;;;1.53;1.00;;;18.30;36.60;;;;;;4993409;28;20219;-68
2023/03/05 03:37:13;;;;;;;1.23;1.07;;;18.30;36.00;;;;;;4991450;28;20266;-68
2023/03/05 03:39:38;;;;;;;0.77;0.77;;;18.30;36.00;;;;;;4988562;28;20823;-67
2023/03/05 03:42:04;;;;;;;0.83;0.80;;;18.30;36.10;;;;;;4996389;28;20439;-68
2023/03/05 03:44:30;;;;;;;1.90;0.70;;;18.30;36.10;;;;;;4990434;28;20222;-68
2023/03/05 03:46:56;;;;;;;0.90;0.80;;;18.30;36.10;;;;;;5001264;28;21320;-68
2023/03/05 03:49:24;;;;;;;0.90;0.80;;;18.30;36.10;;;;;;4995215;28;20243;-68
2023/03/05 03:51:50;;;;;;;1.33;0.70;;;18.30;36.10;;;;;;5000614;28;20258;-68
2023/03/05 03:54:17;;;;;;;2.00;1.33;;;18.30;36.10;;;;;;4986967;28;20481;-68
2023/03/05 03:56:43;;;;;;;0.93;0.70;;;18.30;36.10;;;;;;4998569;28;20495;-69
2023/03/05 03:59:09;;;;;;;1.00;0.80;;;18.30;36.10;;;;;;4989362;28;20439;-68
2023/03/05 04:01:35;;;;;;;0.97;0.70;;;18.30;36.10;;;;;;5000632;28;20506;-68
2023/03/05 04:04:01;;;;;;;0.90;0.70;;;18.30;36.10;;;;;;5002112;28;20227;-68
2023/03/05 04:06:27;;;;;;;0.80;0.80;;;18.30;36.10;;;;;;5000910;28;20580;-68
2023/03/05 04:08:52;;;;;;;1.00;0.77;;;18.30;36.10;;;;;;5003361;28;20479;-66
2023/03/05 04:11:18;;;;;;;0.80;0.73;;;18.30;36.90;;;;;;5002685;28;20296;-68
2023/03/05 04:13:45;;;;;;;0.80;0.80;;;18.30;36.10;;;;;;4994026;28;20244;-68
2023/03/05 04:16:11;;;;;;;0.90;0.70;;;18.30;36.10;;;;;;4994675;28;20227;-68
2023/03/05 04:18:36;;;;;;;0.97;0.87;;;18.30;36.10;;;;;;4991099;28;20469;-68
2023/03/05 04:21:02;;;;;;;0.90;0.80;;;18.30;36.10;;;;;;5002725;28;20453;-68
2023/03/05 04:23:28;;;;;;;1.03;0.90;;;18.30;36.10;;;;;;4988816;28;20228;-68
2023/03/05 04:25:53;;;;;;;0.90;0.80;;;18.30;36.10;;;;;;5004503;28;20219;-67
2023/03/05 04:28:19;;;;;;;0.70;0.60;;;18.30;36.10;;;;;;4999860;28;20227;-68
2023/03/05 04:30:44;;;;;;;0.83;0.70;;;18.30;36.10;;;;;;5003460;28;20233;-68
2023/03/05 04:33:10;;;;;;;0.80;0.70;;;18.30;36.10;;;;;;5001978;28;20231;-68
2023/03/05 04:35:36;;;;;;;1.30;1.20;;;18.30;36.10;;;;;;5002234;28;20219;-68
2023/03/05 04:38:02;;;;;;;1.33;0.80;;;18.30;36.10;;;;;;5001296;28;20253;-68
2023/03/05 04:40:27;;;;;;;0.77;0.73;;;18.30;36.10;;;;;;4982463;28;20225;-68
2023/03/05 04:42:53;;;;;;;1.00;0.80;;;18.30;36.10;;;;;;4996060;28;20224;-66
2023/03/05 04:45:18;;;;;;;1.07;0.80;;;18.30;36.10;;;;;;5000037;28;20241;-68
2023/03/05 04:47:44;;;;;;;1.00;0.80;;;18.30;36.10;;;;;;5002520;28;20281;-68
2023/03/05 04:50:10;;;;;;;0.90;0.80;;;18.30;36.10;;;;;;4996927;28;20219;-69
2023/03/05 04:52:40;;;;;;;0.80;0.60;;;18.30;36.10;;;;;;4982873;28;20228;-69
2023/03/05 04:55:07;;;;;;;2.50;0.87;;;18.30;36.10;;;;;;4992232;28;20456;-69
2023/03/05 04:57:32;;;;;;;1.20;0.90;;;18.30;36.10;;;;;;5000479;28;20464;-68
2023/03/05 04:59:58;;;;;;;1.00;0.80;;;18.30;36.10;;;;;;4990211;28;20465;-68
2023/03/05 05:02:24;;;;;;;1.10;0.90;;;18.30;36.00;;;;;;4998137;28;20223;-67
2023/03/05 05:04:52;;;;;;;1.03;0.80;;;18.30;36.00;;;;;;5002720;28;20358;-68
2023/03/05 05:07:17;;;;;;;0.77;0.70;;;18.30;36.00;;;;;;4998196;28;20223;-68
2023/03/05 05:09:43;;;;;;;1.10;1.00;;;18.30;36.00;;;;;;4991664;28;20457;-69
2023/03/05 05:12:09;;;;;;;0.70;0.70;;;18.30;36.00;;;;;;4994838;28;20314;-69
2023/03/05 05:14:35;;;;;;;0.93;0.77;;;18.30;36.00;;;;;;4998430;28;20219;-68
2023/03/05 05:17:03;;;;;;;1.10;1.00;;;18.30;36.00;;;;;;4991776;28;20465;-68
2023/03/05 05:19:33;;;;;;;1.00;0.80;;;18.30;36.10;;;;;;4998372;28;20297;-68
2023/03/05 05:21:58;;;;;;;1.43;1.13;;;18.30;36.00;;;;;;4995319;28;20456;-68
2023/03/05 05:24:24;;;;;;;0.80;0.70;;;18.30;36.00;;;;;;4999895;28;20461;-69
2023/03/05 05:26:50;;;;;;;0.90;0.80;;;18.30;36.00;;;;;;5002963;28;20357;-68
2023/03/05 05:29:15;;;;;;;1.30;0.93;;;18.30;36.10;;;;;;4998765;28;20227;-68
2023/03/05 05:31:41;;;;;;;1.03;0.80;;;18.30;36.10;;;;;;4995874;28;21192;-68
2023/03/05 05:34:07;;;;;;;1.00;0.90;;;18.30;36.10;;;;;;4995525;28;20223;-68
2023/03/05 05:36:32;;;;;;;1.87;0.90;;;18.30;36.10;;;;;;5002177;28;20610;-69
2023/03/05 05:38:58;;;;;;;0.90;0.80;;;18.30;36.10;;;;;;4999130;28;20226;-69
2023/03/05 05:41:23;;;;;;;1.30;1.00;;;18.30;36.10;;;;;;5001621;28;20219;-68
2023/03/05 05:43:49;;;;;;;0.70;0.70;;;18.30;36.10;;;;;;4996353;28;20293;-68
2023/03/05 05:46:17;;;;;;;1.00;0.70;;;18.30;36.10;;;;;;4991485;28;20235;-68
2023/03/05 05:48:44;;;;;;;1.13;0.83;;;18.30;36.10;;;;;;4987982;28;20224;-69
2023/03/05 05:51:13;;;;;;;1.20;0.87;;;18.30;36.10;;;;;;5000986;28;20543;-68
2023/03/05 05:53:39;;;;;;;1.10;0.90;;;18.30;36.10;;;;;;4991448;28;20452;-68
2023/03/05 05:56:08;;;;;;;1.00;0.90;;;18.30;36.10;;;;;;4986284;28;20444;-68
2023/03/05 05:58:34;;;;;;;1.07;0.80;;;18.30;36.10;;;;;;4996658;28;20970;-68
2023/03/05 06:01:00;;;;;;;1.00;0.80;;;18.30;36.20;;;;;;4997929;28;20464;-68
2023/03/05 06:03:26;;;;;;;0.90;0.80;;;18.30;36.10;;;;;;4997734;28;20447;-67
2023/03/05 06:05:51;;;;;;;1.17;1.07;;;18.30;36.10;;;;;;4998584;28;20445;-68
2023/03/05 06:08:17;;;;;;;0.70;0.63;;;18.30;36.20;;;;;;4995968;28;20233;-68
2023/03/05 06:10:43;;;;;;;1.10;0.90;;;18.30;36.10;;;;;;4991317;28;20239;-68
2023/03/05 06:13:09;;;;;;;0.90;0.73;;;18.30;36.10;;;;;;4996216;28;21309;-69
2023/03/05 06:15:34;;;;;;;1.00;0.73;;;18.30;36.10;;;;;;4986616;28;20215;-68
2023/03/05 06:18:00;;;;;;;0.77;0.77;;;18.30;36.10;;;;;;4989019;28;20223;-67
2023/03/05 06:20:27;;;;;;;0.90;0.77;;;18.30;36.10;;;;;;4996320;28;20227;-67
2023/03/05 06:22:53;;;;;;;1.37;0.80;;;18.30;36.10;;;;;;4998916;28;20231;-67
2023/03/05 06:25:18;;;;;;;0.80;0.80;;;18.30;36.20;;;;;;4994939;28;20449;-67
2023/03/05 06:27:44;;;;;;;0.90;0.80;;;18.30;36.10;;;;;;4998487;28;20435;-67
2023/03/05 06:30:11;;;;;;;1.07;0.83;;;18.30;36.10;;;;;;4998504;28;20315;-68
2023/03/05 06:32:37;;;;;;;0.90;0.73;;;18.30;36.10;;;;;;4990739;28;20269;-67
2023/03/05 06:35:03;;;;;;;0.70;0.70;;;18.30;36.10;;;;;;4995752;28;20980;-67
2023/03/05 06:37:28;;;;;;;0.90;0.70;;;18.30;36.20;;;;;;4998819;28;20227;-67
2023/03/05 06:39:54;;;;;;;1.20;0.93;;;18.30;36.20;;;;;;4983922;28;20531;-67
2023/03/05 06:42:19;;;;;;;1.00;0.70;;;18.30;36.10;;;;;;4996353;28;20695;-67
2023/03/05 06:44:45;;;;;;;1.10;0.90;;;18.30;36.20;;;;;;4996770;28;20484;-67
2023/03/05 06:47:11;;;;;;;0.90;0.70;;;18.30;36.10;;;;;;4998662;28;20235;-67
2023/03/05 06:49:37;;;;;;;0.90;0.90;;;18.30;36.10;;;;;;4988700;28;20769;-67
2023/03/05 06:52:04;;;;;;;1.00;0.80;;;18.30;36.10;;;;;;4993110;28;20255;-71
2023/03/05 06:54:30;;;;;;;1.73;0.90;;;18.30;36.10;;;;;;4998288;28;20486;-68
2023/03/05 06:56:56;;;;;;;0.93;0.70;;;18.30;36.10;;;;;;4998667;28;20427;-68
2023/03/05 06:59:21;;;;;;;0.80;0.80;;;18.30;36.10;;;;;;4999493;28;20612;-67
2023/03/05 07:01:47;;;;;;;0.90;0.80;;;18.30;36.10;;;;;;4990611;28;20278;-68
2023/03/05 07:04:14;;;;;;;1.07;0.97;;;18.30;36.10;;;;;;4988664;28;20515;-70
2023/03/05 07:06:41;;;;;;;0.90;0.80;;;18.30;36.10;;;;;;4998243;28;20258;-67
2023/03/05 07:09:09;;;;;;;1.00;0.73;;;18.30;36.10;;;;;;4992448;28;20484;-67
2023/03/05 07:11:35;;;;;;;1.33;0.90;;;18.30;36.10;;;;;;4988443;28;20487;-68
2023/03/05 07:14:01;;;;;;;1.00;0.70;;;18.30;36.00;;;;;;4984492;28;20575;-68
2023/03/05 07:16:30;;;;;;;1.10;0.93;;;18.30;36.00;;;;;;4992552;28;20228;-67
2023/03/05 07:18:57;;;;;;;1.17;1.00;;;18.30;36.00;;;;;;4996388;28;20419;-67
2023/03/05 07:21:27;;;;;;;0.83;0.77;;;18.30;36.00;;;;;;5000961;28;20998;-67
2023/03/05 07:23:54;;;;;;;0.90;0.80;;;18.30;36.10;;;;;;4990951;28;20453;-67
2023/03/05 07:26:19;;;;;;;0.80;0.80;;;18.30;36.00;;;;;;4996054;28;20462;-67
2023/03/05 07:28:45;;;;;;;1.00;0.90;;;18.30;36.00;;;;;;4978628;28;20441;-67
2023/03/05 07:31:17;;;;;;;0.83;0.80;;;18.30;36.00;;;;;;4986615;28;20356;-67
2023/03/05 07:33:44;;;;;;;0.90;0.70;;;18.30;36.00;;;;;;4977924;28;20253;-68
2023/03/05 07:36:10;;;;;;;0.80;0.70;;;18.30;36.10;;;;;;4984216;28;20457;-69
2023/03/05 07:38:36;;;;;;;1.30;0.80;;;18.30;36.00;;;;;;5012835;28;20517;-69
2023/03/05 07:41:04;;;;;;;1.57;0.90;;;18.30;36.00;;;;;;4984169;28;20884;-71
2023/03/05 07:43:29;;;;;;;1.23;0.83;;;18.30;36.10;;;;;;4982213;28;20231;-71
2023/03/05 07:45:55;;;;;;;0.80;0.80;;;18.30;36.10;;;;;;5033824;28;20552;-71
2023/03/05 07:48:21;;;;;;;0.90;0.90;;;18.30;36.10;;;;;;4994704;28;20229;-71
2023/03/05 07:50:47;;;;;;;1.10;1.00;;;18.30;36.10;;;;;;4992470;28;20227;-68
2023/03/05 07:53:13;;;;;;;1.50;0.90;;;18.30;36.00;;;;;;4987936;28;20251;-71
2023/03/05 07:55:43;;;;;;;1.43;1.33;;;18.30;36.00;;;;;;4993137;28;20476;-70
2023/03/05 07:58:09;;;;;;;0.80;0.80;;;18.30;36.00;;;;;;4982753;28;20318;-71
2023/03/05 08:00:35;;;;;;;1.00;0.90;;;18.30;36.10;;;;;;4990838;28;20427;-69
2023/03/05 08:03:00;;;;;;;6.20;0.77;;;18.30;36.10;;;;;;4993193;28;20675;-72
2023/03/05 08:05:26;;;;;;;2.00;0.80;;;18.30;36.00;;;;;;4992422;28;20247;-71
2023/03/05 08:07:51;;;;;;;0.80;0.70;;;18.30;36.10;;;;;;4988407;28;20306;-70
2023/03/05 08:10:17;;;;;;;1.20;1.00;;;18.30;36.10;;;;;;4985871;28;20238;-69
2023/03/05 08:12:42;;;;;;;0.80;0.67;;;18.30;36.10;;;;;;4996629;28;20232;-71
2023/03/05 08:15:08;;;;;;;0.80;0.70;;;18.30;36.10;;;;;;4989939;28;20223;-70
2023/03/05 08:17:34;;;;;;;1.10;0.70;;;18.30;36.10;;;;;;4990987;28;20314;-69
2023/03/05 08:20:04;;;;;;;1.20;0.80;;;18.30;36.10;;;;;;4992385;28;20342;-70
2023/03/05 08:22:32;;;;;;;0.80;0.80;;;18.30;36.10;;;;;;4982951;28;20239;-71
2023/03/05 08:24:58;;;;;;;1.10;0.90;;;18.30;36.10;;;;;;4970455;28;20852;-69
2023/03/05 08:27:23;;;;;;;1.20;0.80;;;18.30;36.10;;;;;;4993042;28;20505;-68
2023/03/05 08:29:49;;;;;;;1.10;1.00;;;18.30;36.00;;;;;;4984445;28;20695;-69
2023/03/05 08:32:14;;;;;;;0.80;0.70;;;18.30;36.10;;;;;;4975780;28;20299;-68
2023/03/05 08:34:40;;;;;;;0.80;0.77;;;18.30;36.10;;;;;;4978342;28;20759;-68
2023/03/05 08:37:08;;;;;;;0.90;0.80;;;18.30;36.10;;;;;;4975880;28;20247;-69
2023/03/05 08:39:34;;;;;;;1.13;0.90;;;18.30;36.10;;;;;;4980783;28;20758;-69
2023/03/05 08:41:59;;;;;;;0.93;0.80;;;18.30;36.10;;;;;;4981378;28;20473;-67
2023/03/05 08:44:25;;;;;;;1.03;0.93;;;18.30;36.10;;;;;;4977587;28;20694;-69
2023/03/05 08:46:50;;;;;;;11.27;2.13;;;18.30;36.10;;;;;;4986855;28;20232;-68
2023/03/05 08:49:16;;;;;;;3.77;1.20;;;18.30;36.10;;;;;;4989217;28;20220;-68
2023/03/05 08:51:41;;;;;;;5.07;1.10;;;18.30;36.20;;;;;;4995501;28;20246;-70
2023/03/05 08:54:08;;;;;;;4.00;1.57;;;18.30;36.10;;;;;;4995469;28;20759;-72
2023/03/05 08:56:34;;;;;;;4.17;0.90;;;18.30;36.10;;;;;;4997182;28;20558;-71
2023/03/05 08:59:01;;;;;;;1.03;0.87;;;18.30;36.10;;;;;;5000559;28;20488;-71
2023/03/05 09:01:26;;;;;;;1.63;1.13;;;18.30;36.10;;;;;;4989882;28;20431;-72
2023/03/05 09:03:52;;;;;;;1.63;1.00;;;18.30;36.10;;;;;;4989150;28;20446;-71
2023/03/05 09:06:18;;;;;;;5.07;1.20;;;18.30;36.20;;;;;;4992317;28;20226;-72
2023/03/05 09:08:43;;;;;;;8.13;1.40;;;18.30;36.10;;;;;;4994134;28;20454;-73
2023/03/05 09:11:12;;;;;;;3.33;1.20;;;18.30;36.10;;;;;;4984892;28;20232;-73
2023/03/05 09:13:38;;;;;;;1.40;1.00;;;18.30;36.10;;;;;;4991445;28;20232;-73
2023/03/05 09:16:10;;;;;;;3.80;0.90;;;18.30;36.80;;;;;;4993555;28;20974;-74
2023/03/05 09:18:38;;;;;;;2.13;0.90;;;18.30;36.10;;;;;;4990171;28;20600;-70
2023/03/05 09:21:07;;;;;;;1.10;1.00;;;18.30;36.10;;;;;;4996152;28;20455;-72
2023/03/05 09:23:32;;;;;;;2.13;1.27;;;18.30;36.10;;;;;;4988640;28;20480;-74
2023/03/05 09:25:58;;;;;;;3.37;0.90;;;18.30;36.10;;;;;;4984605;28;20465;-65
2023/03/05 09:28:24;;;;;;;1.47;1.00;;;18.30;36.10;;;;;;4973872;28;20239;-68
2023/03/05 09:30:49;;;;;;;1.30;1.00;;;18.30;36.00;;;;;;4992803;28;20235;-71
2023/03/05 09:33:15;;;;;;;1.10;0.97;;;18.30;36.00;;;;;;4989955;28;20301;-70
2023/03/05 09:35:40;;;;;;;2.90;1.10;;;18.30;36.00;;;;;;4976186;28;20286;-73
2023/03/05 09:38:06;;;;;;;1.43;0.90;;;18.30;36.10;;;;;;4988365;28;20219;-72
2023/03/05 09:41:14;;;;;;;0.90;0.77;;;18.30;36.10;;;;;;4994052;28;20227;-68
2023/03/05 09:44:04;;;;;;;1.20;0.90;;;18.40;36.10;;;;;;4990277;28;20318;-73
2023/03/05 09:46:37;;;;;;;5.93;1.03;;;18.30;36.00;;;;;;4984489;28;21829;-71
2023/03/05 09:49:15;;;;;;;3.10;0.90;;;18.30;36.00;;;;;;4982372;28;20459;-70
2023/03/05 09:51:45;;;;;;;4.20;1.20;;;18.40;36.10;;;;;;4991364;28;20468;-70
2023/03/05 09:54:28;;;;;;;1.17;0.93;;;18.40;36.10;;;;;;4985808;28;20542;-72
2023/03/05 09:57:00;;;;;;;3.43;0.83;;;18.40;36.20;;;;;;4978535;28;20442;-74
2023/03/05 09:59:28;;;;;;;1.20;1.10;;;18.40;36.20;;;;;;4994647;28;20965;-75
2023/03/05 10:02:03;;;;;;;1.80;0.93;;;18.40;36.20;;;;;;4981734;28;20478;-70
2023/03/05 10:04:51;;;;;;;1.50;0.90;;;18.40;36.20;;;;;;4992332;28;20438;-66
2023/03/05 10:07:33;;;;;;;2.00;0.83;;;18.40;36.10;;;;;;4981625;28;20477;-75
2023/03/05 10:10:11;;;;;;;3.87;1.10;;;18.40;36.20;;;;;;4990405;28;20440;-66
2023/03/05 10:12:41;;;;;;;1.50;1.10;;;18.40;36.20;;;;;;4993605;28;20480;-72
2023/03/05 10:15:28;;;;;;;3.87;2.30;;;18.40;36.20;;;;;;4977436;28;20424;-74
2023/03/05 10:18:18;;;;;;;3.80;1.27;;;18.50;36.30;;;;;;4982409;28;20444;-67
2023/03/05 10:21:07;;;;;;;1.83;1.50;;;18.50;36.40;;;;;;4999660;28;20485;-66
2023/03/05 10:23:58;;;;;;;1.33;0.90;;;18.50;36.50;;;;;;4993844;28;20461;-67
2023/03/05 10:26:33;;;;;;;1.97;1.40;;;18.50;36.50;;;;;;4999933;28;20446;-66
2023/03/05 10:29:21;;;;;;;1.10;0.90;;;18.40;36.50;;;;;;4988838;28;20535;-74
2023/03/05 10:31:53;;;;;;;2.30;1.20;;;18.50;36.60;;;;;;4997845;28;20516;-81
2023/03/05 10:34:54;;;;;;;2.50;1.00;;;18.50;36.60;;;;;;4996934;28;20523;-79
2023/03/05 10:37:51;;;;;;;5.23;0.90;;;18.50;36.60;;;;;;5000996;28;20453;-77
2023/03/05 10:40:42;;;;;;;1.47;1.00;;;18.50;36.60;;;;;;4992638;28;20483;-72
2023/03/05 10:43:20;;;;;;;1.20;0.90;;;18.50;36.70;;;;;;4990184;28;20482;-74
2023/03/05 10:45:52;;;;;;;2.00;0.93;;;18.50;36.60;;;;;;5002192;28;20466;-71
2023/03/05 10:48:37;;;;;;;1.20;1.10;;;18.50;36.70;;;;;;4995134;28;20439;-73
2023/03/05 10:51:17;;;;;;;1.70;1.20;;;18.50;36.70;;;;;;4992508;28;20424;-71
2023/03/05 10:53:54;;;;;;;1.13;0.80;;;18.50;36.70;;;;;;4995291;28;20447;-75
2023/03/05 10:56:23;;;;;;;2.10;1.00;;;18.50;36.70;;;;;;4997553;28;20424;-72
2023/03/05 10:58:51;;;;;;;1.47;0.80;;;18.50;36.80;;;;;;4992055;28;21051;-74
2023/03/05 11:01:16;;;;;;;1.67;0.90;;;18.50;36.80;;;;;;4985284;28;20699;-74
2023/03/05 11:03:53;;;;;;;3.23;0.90;;;18.50;36.80;;;;;;4996174;28;20987;-75
2023/03/05 11:06:34;;;;;;;1.20;1.03;;;18.50;36.80;;;;;;4992182;28;20287;-76
2023/03/05 11:09:28;;;;;;;4.70;1.07;;;18.50;36.80;;;;;;4981114;28;20465;-67
2023/03/05 11:12:05;;;;;;;1.27;0.90;;;18.50;36.80;;;;;;5002042;28;20510;-67
2023/03/05 11:14:32;;;;;;;2.37;1.00;;;18.50;36.90;;;;;;4992675;28;20696;-66
2023/03/05 11:17:00;;;;;;;1.20;0.90;;;18.50;36.80;;;;;;5005278;28;20453;-66
2023/03/05 11:19:33;;;;;;;2.70;1.33;;;18.50;36.90;;;;;;5001880;28;20493;-65
2023/03/05 11:22:15;;;;;;;3.33;1.30;;;18.50;36.80;;;;;;5004830;28;20455;-66
2023/03/05 11:24:42;;;;;;;1.23;1.00;;;18.50;36.80;;;;;;4996239;28;20939;-66
2023/03/05 11:27:23;;;;;;;4.53;1.50;;;18.50;36.90;;;;;;5001824;28;20544;-66
2023/03/05 11:29:48;;;;;;;3.20;1.60;;;18.50;36.80;;;;;;4991869;28;20591;-66
2023/03/05 11:32:26;;;;;;;5.80;1.13;;;18.50;36.80;;;;;;4997806;28;20585;-67
2023/03/05 11:34:53;;;;;;;2.00;1.10;;;18.50;36.80;;;;;;4995476;28;20222;-68
2023/03/05 11:37:26;;;;;;;10.17;1.90;;;18.50;36.70;;;;;;4997392;28;20557;-66
2023/03/05 11:40:17;;;;;;;8.00;1.97;;;18.50;36.80;;;;;;4985759;28;20457;-65
2023/03/05 11:42:43;;;;;;;2.00;1.43;;;18.50;36.80;;;;;;4992988;28;20419;-66
2023/03/05 11:45:17;;;;;;;6.80;1.70;;;18.50;36.80;;;;;;4982227;28;20447;-66
2023/03/05 11:47:49;;;;;;;6.70;1.20;;;18.50;36.70;;;;;;4995477;28;20461;-67
2023/03/05 11:50:15;;;;;;;3.23;1.20;;;18.50;36.80;;;;;;4998088;28;21181;-68
2023/03/05 11:53:02;;;;;;;6.67;1.83;;;18.50;36.80;;;;;;5000559;28;20472;-69
2023/03/05 11:55:40;;;;;;;8.60;1.30;;;18.40;36.80;;;;;;4993430;28;20219;-70
2023/03/05 11:58:24;;;;;;;2.83;1.20;;;18.40;36.80;;;;;;4989139;28;20458;-70
2023/03/05 12:00:49;;;;;;;3.83;1.40;;;18.50;36.70;;;;;;4991105;28;20991;-67
2023/03/05 12:03:24;;;;;;;4.60;1.20;;;18.40;36.70;;;;;;4983088;28;20449;-66
2023/03/05 12:06:11;;;;;;;2.37;1.27;;;18.40;36.70;;;;;;4992745;28;20309;-70
2023/03/05 12:08:41;;;;;;;2.73;1.10;;;18.40;36.70;;;;;;4990142;28;20460;-69
2023/03/05 12:11:18;;;;;;;4.20;1.50;;;18.40;36.70;;;;;;4996888;28;21114;-69
2023/03/05 12:13:50;;;;;;;1.93;1.17;;;18.40;36.70;;;;;;4992985;28;20480;-68
2023/03/05 12:16:33;;;;;;;4.37;1.50;;;18.40;36.70;;;;;;4997817;28;20488;-68
2023/03/05 12:19:01;;;;;;;1.73;1.50;;;18.40;36.70;;;;;;4982632;28;20448;-66
2023/03/05 12:21:33;;;;;;;2.90;1.40;;;18.40;37.00;;;;;;4977390;28;20950;-67
2023/03/05 12:24:01;;;;;;;2.73;1.10;;;18.40;36.70;;;;;;4981412;28;20475;-67
2023/03/05 12:26:51;;;;;;;3.83;1.57;;;18.40;36.70;;;;;;4992521;28;20436;-67
2023/03/05 12:29:41;;;;;;;3.13;1.30;;;18.40;36.70;;;;;;4993909;28;21352;-66
2023/03/05 12:32:27;;;;;;;2.83;1.40;;;18.40;36.70;;;;;;4982968;28;20486;-66
2023/03/05 12:35:21;;;;;;;3.10;2.20;;;18.40;36.70;;;;;;4978317;28;20471;-67
2023/03/05 12:37:50;;;;;;;4.60;1.60;;;18.40;36.70;;;;;;4989240;28;20516;-68
2023/03/05 12:40:31;;;;;;;4.17;1.50;;;18.40;36.70;;;;;;4989302;28;20537;-67
2023/03/05 12:43:02;;;;;;;6.33;1.53;;;18.40;36.60;;;;;;4982982;28;20436;-64
2023/03/05 12:45:36;;;;;;;2.60;1.67;;;18.40;36.70;;;;;;4993727;28;21027;-65
2023/03/05 12:48:02;;;;;;;3.10;2.07;;;18.40;36.60;;;;;;4989443;28;20443;-65
2023/03/05 12:50:27;;;;;;;3.63;2.00;;;18.40;36.70;;;;;;4989925;28;20901;-66
2023/03/05 12:53:05;;;;;;;1.90;1.70;;;18.40;36.60;;;;;;4986629;28;20273;-67
2023/03/05 12:55:35;;;;;;;5.03;1.70;;;18.50;36.70;;;;;;4987269;28;20248;-65
2023/03/05 12:58:13;;;;;;;6.57;1.70;;;18.50;36.70;;;;;;4990829;28;20520;-66